createdAt,value
2022-07-25T00:03:35.847Z,54.21
2022-07-25T00:08:43.263Z,53.96
2022-07-25T00:13:50.462Z,54.15
2022-07-25T00:18:57.676Z,54.31
2022-07-25T00:24:05.183Z,54.36
2022-07-25T00:29:12.310Z,54.34
2022-07-25T00:34:19.589Z,54.91
2022-07-25T00:39:26.826Z,54.62
2022-07-25T00:44:34.003Z,54.60
2022-07-25T00:49:41.250Z,54.43
2022-07-25T00:54:48.497Z,54.39
2022-07-25T00:59:55.727Z,54.40
2022-07-25T01:05:02.964Z,54.50
2022-07-25T01:10:10.249Z,54.40
2022-07-25T01:15:17.445Z,54.35
2022-07-25T01:20:24.620Z,54.41
2022-07-25T01:25:31.826Z,54.36
2022-07-25T01:30:39.081Z,54.26
2022-07-25T01:35:46.284Z,54.27
2022-07-25T01:40:53.561Z,54.28
2022-07-25T01:46:00.866Z,54.21
2022-07-25T01:51:08.040Z,54.21
2022-07-25T01:56:15.298Z,54.24
2022-07-25T02:01:22.569Z,54.50
2022-07-25T02:06:29.745Z,54.63
2022-07-25T02:11:36.973Z,54.68
2022-07-25T02:16:44.166Z,54.60
2022-07-25T02:21:51.435Z,54.44
2022-07-25T02:26:59.392Z,54.38
2022-07-25T02:32:06.556Z,54.14
2022-07-25T02:37:13.786Z,54.19
2022-07-25T02:42:20.971Z,54.12
2022-07-25T02:47:28.338Z,54.11
2022-07-25T02:52:35.541Z,54.17
2022-07-25T02:57:44.012Z,54.22
2022-07-25T03:02:51.212Z,54.37
2022-07-25T03:07:58.467Z,54.46
2022-07-25T03:13:05.701Z,54.43
2022-07-25T03:18:12.867Z,54.37
2022-07-25T03:23:20.092Z,54.43
2022-07-25T03:28:27.285Z,54.39
2022-07-25T03:33:34.548Z,54.40
2022-07-25T03:38:41.722Z,54.47
2022-07-25T03:43:49.029Z,54.50
2022-07-25T03:48:56.292Z,54.61
2022-07-25T03:54:03.959Z,54.67
2022-07-25T03:59:10.657Z,54.69
2022-07-25T04:04:17.929Z,54.64
2022-07-25T04:09:25.208Z,54.55
2022-07-25T04:14:32.411Z,54.54
2022-07-25T04:19:39.595Z,54.57
2022-07-25T04:24:46.780Z,54.54
2022-07-25T04:29:53.960Z,54.48
2022-07-25T04:35:01.150Z,54.45
2022-07-25T04:40:08.403Z,54.49
2022-07-25T04:45:17.557Z,54.51
2022-07-25T04:50:24.926Z,54.51
2022-07-25T04:55:30.003Z,54.40
2022-07-25T05:00:37.265Z,54.46
2022-07-25T05:05:44.472Z,54.47
2022-07-25T05:10:51.748Z,54.38
2022-07-25T05:15:59.041Z,54.32
2022-07-25T05:21:06.235Z,54.46
2022-07-25T05:26:13.504Z,54.48
2022-07-25T05:31:20.879Z,54.35
2022-07-25T05:36:27.934Z,54.44
2022-07-25T05:41:35.152Z,54.37
2022-07-25T05:46:42.460Z,54.30
2022-07-25T05:51:49.637Z,54.35
2022-07-25T05:56:56.834Z,54.44
2022-07-25T06:02:04.253Z,54.47
2022-07-25T06:07:11.993Z,54.58
2022-07-25T06:12:19.113Z,54.60
2022-07-25T06:17:32.015Z,54.61
2022-07-25T06:22:33.587Z,54.67
2022-07-25T06:27:40.817Z,54.64
2022-07-25T06:32:48.048Z,54.57
2022-07-25T06:37:57.367Z,54.64
2022-07-25T06:43:04.591Z,54.62
2022-07-25T06:48:11.803Z,54.57
2022-07-25T06:53:19.073Z,54.66
2022-07-25T06:58:26.260Z,54.92
2022-07-25T07:03:33.630Z,55.00
2022-07-25T07:08:40.733Z,55.24
2022-07-25T07:13:48.453Z,55.41
2022-07-25T07:18:55.751Z,55.33
2022-07-25T07:24:03.024Z,55.30
2022-07-25T07:29:10.561Z,55.27
2022-07-25T07:34:17.775Z,55.26
2022-07-25T07:39:26.028Z,55.09
2022-07-25T07:44:33.255Z,55.01
2022-07-25T07:49:40.557Z,54.89
2022-07-25T07:54:47.804Z,54.82
2022-07-25T07:59:55.369Z,54.76
2022-07-25T08:05:02.550Z,54.67
2022-07-25T08:10:09.791Z,54.59
2022-07-25T08:15:16.938Z,54.63
2022-07-25T08:20:39.078Z,54.56
2022-07-25T08:25:31.323Z,54.48
2022-07-25T08:30:38.553Z,54.47
2022-07-25T08:35:45.722Z,54.52
2022-07-25T08:40:52.964Z,54.50
2022-07-25T08:46:00.182Z,54.51
2022-07-25T08:51:07.331Z,54.38
2022-07-25T08:56:20.426Z,54.30
2022-07-25T09:01:21.838Z,54.33
2022-07-25T09:06:29.015Z,54.21
2022-07-25T09:11:36.237Z,54.31
2022-07-25T09:16:44.378Z,54.25
2022-07-25T09:21:50.772Z,54.29
2022-07-25T09:26:58.031Z,54.21
2022-07-25T09:32:05.211Z,54.14
2022-07-25T09:37:13.913Z,54.05
2022-07-25T09:42:21.122Z,53.99
2022-07-25T09:47:28.674Z,53.96
2022-07-25T09:52:35.873Z,53.93
2022-07-25T09:57:43.085Z,53.87
2022-07-25T10:02:50.425Z,53.85
2022-07-25T10:07:57.568Z,53.86
2022-07-25T10:13:09.885Z,53.84
2022-07-25T10:18:12.116Z,53.80
2022-07-25T10:23:19.390Z,53.83
2022-07-25T10:28:26.834Z,53.83
2022-07-25T10:33:34.137Z,53.72
2022-07-25T10:38:41.376Z,53.81
2022-07-25T10:43:48.995Z,53.86
2022-07-25T10:48:55.853Z,53.96
2022-07-25T10:54:02.956Z,53.79
2022-07-25T10:59:10.357Z,53.75
2022-07-25T11:04:17.365Z,53.64
2022-07-25T11:09:27.420Z,53.54
2022-07-25T11:14:31.780Z,53.55
2022-07-25T11:19:38.956Z,53.47
2022-07-25T11:24:46.211Z,53.51
2022-07-25T11:29:53.479Z,53.48
2022-07-25T11:35:00.694Z,53.44
2022-07-25T11:40:07.887Z,53.41
2022-07-25T11:45:15.085Z,53.39
2022-07-25T11:50:22.262Z,53.43
2022-07-25T11:55:29.396Z,53.41
2022-07-25T12:00:36.597Z,53.44
2022-07-25T12:05:43.799Z,53.51
2022-07-25T12:10:50.969Z,53.46
2022-07-25T12:15:58.191Z,53.47
2022-07-25T12:21:05.404Z,53.43
2022-07-25T12:26:12.586Z,53.38
2022-07-25T12:31:19.884Z,53.35
2022-07-25T12:36:30.117Z,53.28
2022-07-25T12:41:37.318Z,53.24
2022-07-25T12:46:49.226Z,53.17
2022-07-25T12:51:57.699Z,53.06
2022-07-25T12:56:59.038Z,52.94
2022-07-25T13:02:06.338Z,52.86
2022-07-25T13:07:15.301Z,52.83
2022-07-25T13:12:22.513Z,52.76
2022-07-25T13:17:29.782Z,52.69
2022-07-25T13:22:36.989Z,52.61
2022-07-25T13:27:44.537Z,52.55
2022-07-25T13:32:52.950Z,52.45
2022-07-25T13:38:00.165Z,52.20
2022-07-25T13:43:07.454Z,51.80
2022-07-25T13:48:31.489Z,51.57
2022-07-25T13:53:25.514Z,51.38
2022-07-25T13:58:30.444Z,51.25
2022-07-25T14:03:37.692Z,51.06
2022-07-25T14:08:44.864Z,50.87
2022-07-25T14:13:52.040Z,50.85
2022-07-25T14:19:00.086Z,50.53
2022-07-25T14:24:07.321Z,50.36
2022-07-25T14:29:14.491Z,50.23
2022-07-25T14:34:21.769Z,50.03
2022-07-25T14:39:28.958Z,50.02
2022-07-25T14:44:37.263Z,49.92
2022-07-25T14:49:43.648Z,49.89
2022-07-25T14:54:50.825Z,49.81
2022-07-25T14:59:58.011Z,49.71
2022-07-25T15:05:05.283Z,49.73
2022-07-25T15:10:12.413Z,49.68
2022-07-25T15:15:19.651Z,49.68
2022-07-25T15:20:26.858Z,49.64
2022-07-25T15:26:03.581Z,49.56
2022-07-25T15:30:41.226Z,49.52
2022-07-25T15:35:52.004Z,49.49
2022-07-25T15:41:00.520Z,49.42
2022-07-25T15:46:07.841Z,49.28
2022-07-25T15:51:14.899Z,49.20
2022-07-25T15:56:22.132Z,49.16
2022-07-25T16:01:29.445Z,49.13
2022-07-25T16:06:36.644Z,49.10
2022-07-25T16:11:43.810Z,48.92
2022-07-25T16:16:50.996Z,48.78
2022-07-25T16:21:58.202Z,48.74
2022-07-25T16:27:05.454Z,48.79
2022-07-25T16:32:14.561Z,48.90
2022-07-25T16:37:21.774Z,49.00
2022-07-25T16:42:28.938Z,49.10
2022-07-25T16:47:36.227Z,49.07
2022-07-25T16:52:43.410Z,49.11
2022-07-25T16:57:50.707Z,49.15
2022-07-25T17:02:57.967Z,49.23
2022-07-25T17:08:05.173Z,49.33
2022-07-25T17:13:12.431Z,49.45
2022-07-25T17:18:19.644Z,49.68
2022-07-25T17:23:26.895Z,50.02
2022-07-25T17:28:34.116Z,49.87
2022-07-25T17:33:41.342Z,49.94
2022-07-25T17:38:48.608Z,50.07
2022-07-25T17:43:55.799Z,50.10
2022-07-25T17:49:03.048Z,50.17
2022-07-25T17:54:10.659Z,50.14
2022-07-25T17:59:17.434Z,50.13
2022-07-25T18:04:24.676Z,48.49
2022-07-25T18:09:31.900Z,46.86
2022-07-25T18:14:39.074Z,46.52
2022-07-25T18:19:46.357Z,46.29
2022-07-25T18:24:53.558Z,46.74
2022-07-25T18:30:00.704Z,46.85
2022-07-25T18:35:07.954Z,47.01
2022-07-25T18:40:15.101Z,46.91
2022-07-25T18:45:22.340Z,46.91
2022-07-25T18:50:29.584Z,46.99
2022-07-25T18:55:36.733Z,46.75
2022-07-25T19:00:45.527Z,46.62
2022-07-25T19:05:52.788Z,46.88
2022-07-25T19:11:00.012Z,48.23
2022-07-25T19:16:07.257Z,49.85
2022-07-25T19:21:14.480Z,48.28
2022-07-25T19:26:21.723Z,49.13
2022-07-25T19:31:29.050Z,49.38
2022-07-25T19:36:36.134Z,49.96
2022-07-25T19:41:46.608Z,50.05
2022-07-25T19:46:50.558Z,50.47
2022-07-25T19:51:57.773Z,51.02
2022-07-25T19:57:04.987Z,50.90
2022-07-25T20:02:12.282Z,51.10
2022-07-25T20:07:19.470Z,51.61
2022-07-25T20:12:26.651Z,52.42
2022-07-25T20:17:33.831Z,53.00
2022-07-25T20:22:41.017Z,53.13
2022-07-25T20:27:48.200Z,53.41
2022-07-25T20:32:55.406Z,53.62
2022-07-25T20:38:02.675Z,54.36
2022-07-25T20:43:12.904Z,55.51
2022-07-25T20:48:20.179Z,55.79
2022-07-25T20:53:27.485Z,55.53
2022-07-25T20:58:34.740Z,55.26
2022-07-25T21:03:42.001Z,55.27
2022-07-25T21:08:49.191Z,55.56
2022-07-25T21:13:56.496Z,55.93
2022-07-25T21:19:03.983Z,55.64
2022-07-25T21:24:10.956Z,55.57
2022-07-25T21:29:18.149Z,55.55
2022-07-25T21:34:25.451Z,55.41
2022-07-25T21:39:32.728Z,55.23
2022-07-25T21:44:39.959Z,55.05
2022-07-25T21:49:47.222Z,54.83
2022-07-25T21:54:54.362Z,54.60
2022-07-25T22:00:01.641Z,54.38
2022-07-25T22:05:08.859Z,54.30
2022-07-25T22:10:16.129Z,54.24
2022-07-25T22:15:23.305Z,54.38
2022-07-25T22:20:30.505Z,54.54
2022-07-25T22:25:37.643Z,54.76
2022-07-25T22:30:44.873Z,54.63
2022-07-25T22:35:52.031Z,54.59
2022-07-25T22:40:59.270Z,54.60
2022-07-25T22:46:06.582Z,54.51
2022-07-25T22:51:13.694Z,54.45
2022-07-25T22:56:20.909Z,54.38
2022-07-25T23:01:28.161Z,54.35
2022-07-25T23:06:35.422Z,54.57
2022-07-25T23:11:42.699Z,54.81
2022-07-25T23:16:49.992Z,54.99
2022-07-25T23:21:57.128Z,55.20
2022-07-25T23:27:04.387Z,55.36
2022-07-25T23:32:11.602Z,55.49
2022-07-25T23:37:21.398Z,55.63
2022-07-25T23:42:28.648Z,55.82
2022-07-25T23:47:39.565Z,55.95
2022-07-25T23:52:43.096Z,56.00
2022-07-25T23:57:50.324Z,56.00
